sensor_id;sensor_type;location;lat;lon;timestamp;P1;durP1;ratioP1;P2;durP2;ratioP2
13311;SDS011;34033;48.672;9.376;2024-01-27T00:00:35;1.80;;;1.40;;
13311;SDS011;34033;48.672;9.376;2024-01-27T00:03:00;1.13;;;0.97;;
13311;SDS011;34033;48.672;9.376;2024-01-27T00:05:25;1.87;;;0.90;;
13311;SDS011;34033;48.672;9.376;2024-01-27T00:07:51;4.80;;;1.50;;
13311;SDS011;34033;48.672;9.376;2024-01-27T00:10:16;2.10;;;1.37;;
13311;SDS011;34033;48.672;9.376;2024-01-27T00:12:41;1.70;;;1.60;;
13311;SDS011;34033;48.672;9.376;2024-01-27T00:15:07;1.30;;;1.20;;
13311;SDS011;34033;48.672;9.376;2024-01-27T00:17:33;1.80;;;1.20;;
13311;SDS011;34033;48.672;9.376;2024-01-27T00:20:00;1.30;;;1.20;;
13311;SDS011;34033;48.672;9.376;2024-01-27T00:22:26;2.30;;;1.40;;
13311;SDS011;34033;48.672;9.376;2024-01-27T00:24:51;2.77;;;1.43;;
13311;SDS011;34033;48.672;9.376;2024-01-27T00:27:17;4.17;;;1.63;;
13311;SDS011;34033;48.672;9.376;2024-01-27T00:29:42;2.07;;;1.17;;
13311;SDS011;34033;48.672;9.376;2024-01-27T00:32:08;1.30;;;1.20;;
13311;SDS011;34033;48.672;9.376;2024-01-27T00:34:33;1.20;;;0.90;;
13311;SDS011;34033;48.672;9.376;2024-01-27T00:36:58;0.90;;;0.90;;
13311;SDS011;34033;48.672;9.376;2024-01-27T00:39:24;1.57;;;0.80;;
13311;SDS011;34033;48.672;9.376;2024-01-27T00:41:49;0.87;;;0.87;;
13311;SDS011;34033;48.672;9.376;2024-01-27T00:44:14;1.00;;;1.00;;
13311;SDS011;34033;48.672;9.376;2024-01-27T00:46:40;1.10;;;1.00;;
13311;SDS011;34033;48.672;9.376;2024-01-27T00:49:05;1.00;;;1.00;;
13311;SDS011;34033;48.672;9.376;2024-01-27T00:51:31;1.10;;;1.00;;
13311;SDS011;34033;48.672;9.376;2024-01-27T00:53:56;1.00;;;0.90;;
13311;SDS011;34033;48.672;9.376;2024-01-27T00:56:22;0.67;;;0.67;;
13311;SDS011;34033;48.672;9.376;2024-01-27T00:58:47;0.97;;;0.83;;
13311;SDS011;34033;48.672;9.376;2024-01-27T01:01:12;0.87;;;0.87;;
13311;SDS011;34033;48.672;9.376;2024-01-27T01:03:38;0.67;;;0.67;;
13311;SDS011;34033;48.672;9.376;2024-01-27T01:06:03;0.80;;;0.80;;
13311;SDS011;34033;48.672;9.376;2024-01-27T01:08:29;0.83;;;0.83;;
13311;SDS011;34033;48.672;9.376;2024-01-27T01:10:54;0.93;;;0.93;;
13311;SDS011;34033;48.672;9.376;2024-01-27T01:13:19;1.63;;;1.07;;
13311;SDS011;34033;48.672;9.376;2024-01-27T01:15:45;0.90;;;0.90;;
13311;SDS011;34033;48.672;9.376;2024-01-27T01:18:10;2.13;;;1.00;;
13311;SDS011;34033;48.672;9.376;2024-01-27T01:20:36;0.93;;;0.93;;
13311;SDS011;34033;48.672;9.376;2024-01-27T01:23:01;1.83;;;1.13;;
13311;SDS011;34033;48.672;9.376;2024-01-27T01:25:26;0.93;;;0.90;;
13311;SDS011;34033;48.672;9.376;2024-01-27T01:27:52;1.83;;;1.10;;
13311;SDS011;34033;48.672;9.376;2024-01-27T01:30:17;0.80;;;0.80;;
13311;SDS011;34033;48.672;9.376;2024-01-27T01:32:42;1.40;;;0.60;;
13311;SDS011;34033;48.672;9.376;2024-01-27T01:35:09;0.73;;;0.73;;
13311;SDS011;34033;48.672;9.376;2024-01-27T01:37:35;0.80;;;0.80;;
13311;SDS011;34033;48.672;9.376;2024-01-27T01:40:00;1.33;;;0.90;;
13311;SDS011;34033;48.672;9.376;2024-01-27T01:42:26;0.77;;;0.77;;
13311;SDS011;34033;48.672;9.376;2024-01-27T01:44:51;0.73;;;0.73;;
13311;SDS011;34033;48.672;9.376;2024-01-27T01:47:17;1.00;;;1.00;;
13311;SDS011;34033;48.672;9.376;2024-01-27T01:49:43;2.07;;;0.90;;
13311;SDS011;34033;48.672;9.376;2024-01-27T01:52:08;1.67;;;1.00;;
13311;SDS011;34033;48.672;9.376;2024-01-27T01:54:35;1.27;;;0.67;;
13311;SDS011;34033;48.672;9.376;2024-01-27T01:57:00;0.70;;;0.70;;
13311;SDS011;34033;48.672;9.376;2024-01-27T01:59:28;0.63;;;0.63;;
13311;SDS011;34033;48.672;9.376;2024-01-27T02:01:53;0.80;;;0.80;;
13311;SDS011;34033;48.672;9.376;2024-01-27T02:04:19;0.80;;;0.80;;
13311;SDS011;34033;48.672;9.376;2024-01-27T02:06:44;0.80;;;0.80;;
13311;SDS011;34033;48.672;9.376;2024-01-27T02:09:09;0.77;;;0.77;;
13311;SDS011;34033;48.672;9.376;2024-01-27T02:11:35;1.00;;;0.87;;
13311;SDS011;34033;48.672;9.376;2024-01-27T02:14:00;0.70;;;0.70;;
13311;SDS011;34033;48.672;9.376;2024-01-27T02:16:26;0.67;;;0.67;;
13311;SDS011;34033;48.672;9.376;2024-01-27T02:18:51;0.97;;;0.73;;
13311;SDS011;34033;48.672;9.376;2024-01-27T02:21:16;4.10;;;0.80;;
13311;SDS011;34033;48.672;9.376;2024-01-27T02:23:41;0.70;;;0.70;;
13311;SDS011;34033;48.672;9.376;2024-01-27T02:26:07;3.63;;;1.00;;
13311;SDS011;34033;48.672;9.376;2024-01-27T02:28:32;0.80;;;0.80;;
13311;SDS011;34033;48.672;9.376;2024-01-27T02:30:58;0.63;;;0.63;;
13311;SDS011;34033;48.672;9.376;2024-01-27T02:33:27;0.57;;;0.57;;
13311;SDS011;34033;48.672;9.376;2024-01-27T02:35:53;0.53;;;0.53;;
13311;SDS011;34033;48.672;9.376;2024-01-27T02:38:18;0.73;;;0.73;;
13311;SDS011;34033;48.672;9.376;2024-01-27T02:40:43;0.70;;;0.70;;
13311;SDS011;34033;48.672;9.376;2024-01-27T02:43:09;0.60;;;0.60;;
13311;SDS011;34033;48.672;9.376;2024-01-27T02:45:34;0.70;;;0.70;;
13311;SDS011;34033;48.672;9.376;2024-01-27T02:47:59;0.67;;;0.67;;
13311;SDS011;34033;48.672;9.376;2024-01-27T02:50:25;0.60;;;0.60;;
13311;SDS011;34033;48.672;9.376;2024-01-27T02:52:50;0.80;;;0.80;;
13311;SDS011;34033;48.672;9.376;2024-01-27T02:55:15;1.03;;;0.67;;
13311;SDS011;34033;48.672;9.376;2024-01-27T02:57:41;0.90;;;0.90;;
13311;SDS011;34033;48.672;9.376;2024-01-27T03:00:06;2.23;;;0.87;;
13311;SDS011;34033;48.672;9.376;2024-01-27T03:02:32;1.57;;;0.90;;
13311;SDS011;34033;48.672;9.376;2024-01-27T03:04:58;1.45;;;1.35;;
13311;SDS011;34033;48.672;9.376;2024-01-27T03:07:23;1.30;;;1.20;;
13311;SDS011;34033;48.672;9.376;2024-01-27T03:09:48;0.60;;;0.60;;
13311;SDS011;34033;48.672;9.376;2024-01-27T03:12:14;0.70;;;0.70;;
13311;SDS011;34033;48.672;9.376;2024-01-27T03:14:40;0.70;;;0.70;;
13311;SDS011;34033;48.672;9.376;2024-01-27T03:17:06;0.90;;;0.90;;
13311;SDS011;34033;48.672;9.376;2024-01-27T03:19:32;0.73;;;0.73;;
13311;SDS011;34033;48.672;9.376;2024-01-27T03:21:58;0.87;;;0.87;;
13311;SDS011;34033;48.672;9.376;2024-01-27T03:24:23;0.93;;;0.90;;
13311;SDS011;34033;48.672;9.376;2024-01-27T03:26:48;0.73;;;0.73;;
13311;SDS011;34033;48.672;9.376;2024-01-27T03:29:14;0.73;;;0.60;;
13311;SDS011;34033;48.672;9.376;2024-01-27T03:31:39;0.60;;;0.60;;
13311;SDS011;34033;48.672;9.376;2024-01-27T03:34:04;0.63;;;0.63;;
13311;SDS011;34033;48.672;9.376;2024-01-27T03:36:30;0.57;;;0.57;;
13311;SDS011;34033;48.672;9.376;2024-01-27T03:38:56;0.53;;;0.53;;
13311;SDS011;34033;48.672;9.376;2024-01-27T03:41:22;0.57;;;0.57;;
13311;SDS011;34033;48.672;9.376;2024-01-27T03:43:47;0.53;;;0.53;;
13311;SDS011;34033;48.672;9.376;2024-01-27T03:46:13;0.60;;;0.60;;
13311;SDS011;34033;48.672;9.376;2024-01-27T03:48:38;0.87;;;0.80;;
13311;SDS011;34033;48.672;9.376;2024-01-27T03:51:04;1.00;;;0.80;;
13311;SDS011;34033;48.672;9.376;2024-01-27T03:53:29;3.53;;;0.97;;
13311;SDS011;34033;48.672;9.376;2024-01-27T03:55:55;1.17;;;0.70;;
13311;SDS011;34033;48.672;9.376;2024-01-27T03:58:23;0.67;;;0.67;;
13311;SDS011;34033;48.672;9.376;2024-01-27T04:00:49;0.40;;;0.40;;
13311;SDS011;34033;48.672;9.376;2024-01-27T04:03:14;0.30;;;0.30;;
13311;SDS011;34033;48.672;9.376;2024-01-27T04:05:39;0.77;;;0.50;;
13311;SDS011;34033;48.672;9.376;2024-01-27T04:08:05;0.80;;;0.60;;
13311;SDS011;34033;48.672;9.376;2024-01-27T04:10:31;0.40;;;0.40;;
13311;SDS011;34033;48.672;9.376;2024-01-27T04:12:57;0.53;;;0.53;;
13311;SDS011;34033;48.672;9.376;2024-01-27T04:15:22;0.67;;;0.67;;
13311;SDS011;34033;48.672;9.376;2024-01-27T04:17:47;0.73;;;0.73;;
13311;SDS011;34033;48.672;9.376;2024-01-27T04:20:12;0.50;;;0.50;;
13311;SDS011;34033;48.672;9.376;2024-01-27T04:22:38;0.50;;;0.50;;
13311;SDS011;34033;48.672;9.376;2024-01-27T04:25:04;0.67;;;0.67;;
13311;SDS011;34033;48.672;9.376;2024-01-27T04:27:30;0.90;;;0.70;;
13311;SDS011;34033;48.672;9.376;2024-01-27T04:29:55;0.80;;;0.70;;
13311;SDS011;34033;48.672;9.376;2024-01-27T04:32:22;0.60;;;0.60;;
13311;SDS011;34033;48.672;9.376;2024-01-27T04:34:48;0.60;;;0.60;;
13311;SDS011;34033;48.672;9.376;2024-01-27T04:37:14;0.50;;;0.50;;
13311;SDS011;34033;48.672;9.376;2024-01-27T04:39:39;0.40;;;0.40;;
13311;SDS011;34033;48.672;9.376;2024-01-27T04:42:05;0.70;;;0.70;;
13311;SDS011;34033;48.672;9.376;2024-01-27T04:44:33;0.70;;;0.70;;
13311;SDS011;34033;48.672;9.376;2024-01-27T04:46:58;0.60;;;0.60;;
13311;SDS011;34033;48.672;9.376;2024-01-27T04:49:24;0.70;;;0.50;;
13311;SDS011;34033;48.672;9.376;2024-01-27T04:51:50;0.70;;;0.70;;
13311;SDS011;34033;48.672;9.376;2024-01-27T04:54:15;0.67;;;0.67;;
13311;SDS011;34033;48.672;9.376;2024-01-27T04:56:41;0.60;;;0.60;;
13311;SDS011;34033;48.672;9.376;2024-01-27T04:59:06;1.37;;;0.70;;
13311;SDS011;34033;48.672;9.376;2024-01-27T05:01:32;0.60;;;0.60;;
13311;SDS011;34033;48.672;9.376;2024-01-27T05:03:57;0.60;;;0.60;;
13311;SDS011;34033;48.672;9.376;2024-01-27T05:06:22;0.40;;;0.40;;
13311;SDS011;34033;48.672;9.376;2024-01-27T05:08:48;1.00;;;1.00;;
13311;SDS011;34033;48.672;9.376;2024-01-27T05:11:13;0.93;;;0.70;;
13311;SDS011;34033;48.672;9.376;2024-01-27T05:13:39;1.17;;;1.00;;
13311;SDS011;34033;48.672;9.376;2024-01-27T05:16:05;1.43;;;1.10;;
13311;SDS011;34033;48.672;9.376;2024-01-27T05:18:31;0.67;;;0.67;;
13311;SDS011;34033;48.672;9.376;2024-01-27T05:20:56;0.50;;;0.50;;
13311;SDS011;34033;48.672;9.376;2024-01-27T05:23:21;0.70;;;0.70;;
13311;SDS011;34033;48.672;9.376;2024-01-27T05:25:48;0.60;;;0.60;;
13311;SDS011;34033;48.672;9.376;2024-01-27T05:28:13;0.93;;;0.93;;
13311;SDS011;34033;48.672;9.376;2024-01-27T05:30:39;0.77;;;0.77;;
13311;SDS011;34033;48.672;9.376;2024-01-27T05:33:04;0.60;;;0.60;;
13311;SDS011;34033;48.672;9.376;2024-01-27T05:35:29;1.07;;;1.03;;
13311;SDS011;34033;48.672;9.376;2024-01-27T05:37:54;0.50;;;0.50;;
13311;SDS011;34033;48.672;9.376;2024-01-27T05:40:20;0.77;;;0.77;;
13311;SDS011;34033;48.672;9.376;2024-01-27T05:42:45;0.90;;;0.73;;
13311;SDS011;34033;48.672;9.376;2024-01-27T05:45:11;0.83;;;0.73;;
13311;SDS011;34033;48.672;9.376;2024-01-27T05:47:36;0.60;;;0.60;;
13311;SDS011;34033;48.672;9.376;2024-01-27T05:50:01;0.70;;;0.70;;
13311;SDS011;34033;48.672;9.376;2024-01-27T05:52:27;0.70;;;0.70;;
13311;SDS011;34033;48.672;9.376;2024-01-27T05:54:53;1.00;;;1.00;;
13311;SDS011;34033;48.672;9.376;2024-01-27T05:57:19;1.20;;;1.10;;
13311;SDS011;34033;48.672;9.376;2024-01-27T05:59:44;0.90;;;0.90;;
13311;SDS011;34033;48.672;9.376;2024-01-27T06:02:10;1.03;;;0.97;;
13311;SDS011;34033;48.672;9.376;2024-01-27T06:04:35;1.20;;;1.10;;
13311;SDS011;34033;48.672;9.376;2024-01-27T06:07:00;0.90;;;0.90;;
13311;SDS011;34033;48.672;9.376;2024-01-27T06:09:26;0.60;;;0.60;;
13311;SDS011;34033;48.672;9.376;2024-01-27T06:11:51;1.10;;;0.90;;
13311;SDS011;34033;48.672;9.376;2024-01-27T06:14:16;1.40;;;0.80;;
13311;SDS011;34033;48.672;9.376;2024-01-27T06:16:42;0.73;;;0.73;;
13311;SDS011;34033;48.672;9.376;2024-01-27T06:19:07;0.40;;;0.40;;
13311;SDS011;34033;48.672;9.376;2024-01-27T06:21:32;0.97;;;0.80;;
13311;SDS011;34033;48.672;9.376;2024-01-27T06:23:58;0.60;;;0.60;;
13311;SDS011;34033;48.672;9.376;2024-01-27T06:26:23;1.30;;;1.00;;
13311;SDS011;34033;48.672;9.376;2024-01-27T06:28:48;0.63;;;0.63;;
13311;SDS011;34033;48.672;9.376;2024-01-27T06:31:15;0.93;;;0.70;;
13311;SDS011;34033;48.672;9.376;2024-01-27T06:33:40;0.80;;;0.77;;
13311;SDS011;34033;48.672;9.376;2024-01-27T06:36:06;1.00;;;0.90;;
13311;SDS011;34033;48.672;9.376;2024-01-27T06:38:34;0.80;;;0.80;;
13311;SDS011;34033;48.672;9.376;2024-01-27T06:40:59;1.63;;;1.33;;
13311;SDS011;34033;48.672;9.376;2024-01-27T06:43:25;1.53;;;1.43;;
13311;SDS011;34033;48.672;9.376;2024-01-27T06:45:50;1.63;;;1.40;;
13311;SDS011;34033;48.672;9.376;2024-01-27T06:48:15;1.70;;;0.70;;
13311;SDS011;34033;48.672;9.376;2024-01-27T06:50:41;1.13;;;0.83;;
13311;SDS011;34033;48.672;9.376;2024-01-27T06:53:06;0.90;;;0.90;;
13311;SDS011;34033;48.672;9.376;2024-01-27T06:55:32;0.80;;;0.80;;
13311;SDS011;34033;48.672;9.376;2024-01-27T06:57:57;1.37;;;1.17;;
13311;SDS011;34033;48.672;9.376;2024-01-27T07:00:22;1.40;;;1.30;;
13311;SDS011;34033;48.672;9.376;2024-01-27T07:02:48;1.67;;;1.03;;
13311;SDS011;34033;48.672;9.376;2024-01-27T07:05:13;1.13;;;0.80;;
13311;SDS011;34033;48.672;9.376;2024-01-27T07:07:39;0.83;;;0.83;;
13311;SDS011;34033;48.672;9.376;2024-01-27T07:10:05;1.13;;;1.03;;
13311;SDS011;34033;48.672;9.376;2024-01-27T07:12:32;1.30;;;1.20;;
13311;SDS011;34033;48.672;9.376;2024-01-27T07:14:58;1.30;;;1.20;;
13311;SDS011;34033;48.672;9.376;2024-01-27T07:17:24;1.43;;;1.00;;
13311;SDS011;34033;48.672;9.376;2024-01-27T07:19:51;0.70;;;0.70;;
13311;SDS011;34033;48.672;9.376;2024-01-27T07:22:16;1.53;;;1.10;;
13311;SDS011;34033;48.672;9.376;2024-01-27T07:24:41;0.70;;;0.70;;
13311;SDS011;34033;48.672;9.376;2024-01-27T07:27:07;1.03;;;0.80;;
13311;SDS011;34033;48.672;9.376;2024-01-27T07:29:32;1.70;;;1.07;;
13311;SDS011;34033;48.672;9.376;2024-01-27T07:31:57;1.50;;;1.40;;
13311;SDS011;34033;48.672;9.376;2024-01-27T07:34:23;1.17;;;1.17;;
13311;SDS011;34033;48.672;9.376;2024-01-27T07:36:48;1.23;;;0.93;;
13311;SDS011;34033;48.672;9.376;2024-01-27T07:39:14;1.17;;;0.63;;
13311;SDS011;34033;48.672;9.376;2024-01-27T07:41:40;1.97;;;0.93;;
13311;SDS011;34033;48.672;9.376;2024-01-27T07:44:09;1.50;;;0.93;;
13311;SDS011;34033;48.672;9.376;2024-01-27T07:46:35;0.90;;;0.90;;
13311;SDS011;34033;48.672;9.376;2024-01-27T07:49:02;1.23;;;1.00;;
13311;SDS011;34033;48.672;9.376;2024-01-27T07:51:28;1.70;;;1.30;;
13311;SDS011;34033;48.672;9.376;2024-01-27T07:53:53;1.03;;;1.03;;
13311;SDS011;34033;48.672;9.376;2024-01-27T07:56:18;1.20;;;1.10;;
13311;SDS011;34033;48.672;9.376;2024-01-27T07:58:44;1.20;;;1.13;;
13311;SDS011;34033;48.672;9.376;2024-01-27T08:01:09;2.33;;;1.57;;
13311;SDS011;34033;48.672;9.376;2024-01-27T08:03:34;1.43;;;1.33;;
13311;SDS011;34033;48.672;9.376;2024-01-27T08:06:04;1.40;;;1.30;;
13311;SDS011;34033;48.672;9.376;2024-01-27T08:08:30;2.00;;;1.50;;
13311;SDS011;34033;48.672;9.376;2024-01-27T08:10:55;3.03;;;1.53;;
13311;SDS011;34033;48.672;9.376;2024-01-27T08:13:20;5.77;;;1.77;;
13311;SDS011;34033;48.672;9.376;2024-01-27T08:15:46;1.77;;;1.67;;
13311;SDS011;34033;48.672;9.376;2024-01-27T08:18:11;1.87;;;1.73;;
13311;SDS011;34033;48.672;9.376;2024-01-27T08:20:36;1.73;;;1.60;;
13311;SDS011;34033;48.672;9.376;2024-01-27T08:23:02;3.10;;;1.83;;
13311;SDS011;34033;48.672;9.376;2024-01-27T08:25:28;2.40;;;1.90;;
13311;SDS011;34033;48.672;9.376;2024-01-27T08:27:53;4.13;;;1.33;;
13311;SDS011;34033;48.672;9.376;2024-01-27T08:30:18;3.83;;;1.93;;
13311;SDS011;34033;48.672;9.376;2024-01-27T08:32:44;1.73;;;1.63;;
13311;SDS011;34033;48.672;9.376;2024-01-27T08:35:09;1.83;;;1.53;;
13311;SDS011;34033;48.672;9.376;2024-01-27T08:37:35;2.03;;;1.60;;
13311;SDS011;34033;48.672;9.376;2024-01-27T08:40:04;9.77;;;4.97;;
13311;SDS011;34033;48.672;9.376;2024-01-27T08:42:33;4.17;;;2.37;;
13311;SDS011;34033;48.672;9.376;2024-01-27T08:44:58;3.50;;;2.63;;
13311;SDS011;34033;48.672;9.376;2024-01-27T08:47:24;2.53;;;2.10;;
13311;SDS011;34033;48.672;9.376;2024-01-27T08:49:49;2.30;;;2.10;;
13311;SDS011;34033;48.672;9.376;2024-01-27T08:52:14;3.17;;;1.67;;
13311;SDS011;34033;48.672;9.376;2024-01-27T08:54:40;2.67;;;1.63;;
13311;SDS011;34033;48.672;9.376;2024-01-27T08:57:06;1.50;;;1.40;;
13311;SDS011;34033;48.672;9.376;2024-01-27T08:59:31;3.63;;;2.17;;
13311;SDS011;34033;48.672;9.376;2024-01-27T09:01:56;1.50;;;1.40;;
13311;SDS011;34033;48.672;9.376;2024-01-27T09:04:22;3.50;;;1.50;;
13311;SDS011;34033;48.672;9.376;2024-01-27T09:06:47;1.43;;;1.33;;
13311;SDS011;34033;48.672;9.376;2024-01-27T09:09:12;2.73;;;1.63;;
13311;SDS011;34033;48.672;9.376;2024-01-27T09:11:38;2.70;;;1.87;;
13311;SDS011;34033;48.672;9.376;2024-01-27T09:14:03;1.70;;;1.60;;
13311;SDS011;34033;48.672;9.376;2024-01-27T09:16:32;11.17;;;1.80;;
13311;SDS011;34033;48.672;9.376;2024-01-27T09:18:57;1.43;;;1.20;;
13311;SDS011;34033;48.672;9.376;2024-01-27T09:21:22;3.03;;;1.23;;
13311;SDS011;34033;48.672;9.376;2024-01-27T09:23:53;1.43;;;1.33;;
13311;SDS011;34033;48.672;9.376;2024-01-27T09:26:22;2.10;;;1.60;;
13311;SDS011;34033;48.672;9.376;2024-01-27T09:28:48;7.33;;;2.30;;
13311;SDS011;34033;48.672;9.376;2024-01-27T09:31:19;2.90;;;1.63;;
13311;SDS011;34033;48.672;9.376;2024-01-27T09:33:47;2.30;;;2.10;;
13311;SDS011;34033;48.672;9.376;2024-01-27T09:36:13;2.30;;;1.63;;
13311;SDS011;34033;48.672;9.376;2024-01-27T09:38:39;1.80;;;1.70;;
13311;SDS011;34033;48.672;9.376;2024-01-27T09:41:04;2.43;;;1.67;;
13311;SDS011;34033;48.672;9.376;2024-01-27T09:43:29;1.87;;;1.43;;
13311;SDS011;34033;48.672;9.376;2024-01-27T09:45:56;1.83;;;1.43;;
13311;SDS011;34033;48.672;9.376;2024-01-27T09:48:21;1.93;;;1.53;;
13311;SDS011;34033;48.672;9.376;2024-01-27T09:50:47;1.43;;;1.33;;
13311;SDS011;34033;48.672;9.376;2024-01-27T09:53:14;2.43;;;1.73;;
13311;SDS011;34033;48.672;9.376;2024-01-27T09:55:40;1.50;;;1.40;;
13311;SDS011;34033;48.672;9.376;2024-01-27T09:58:05;1.53;;;1.43;;
13311;SDS011;34033;48.672;9.376;2024-01-27T10:00:31;1.60;;;1.33;;
13311;SDS011;34033;48.672;9.376;2024-01-27T10:03:00;1.10;;;1.10;;
13311;SDS011;34033;48.672;9.376;2024-01-27T10:05:26;1.13;;;1.13;;
13311;SDS011;34033;48.672;9.376;2024-01-27T10:07:52;1.53;;;1.43;;
13311;SDS011;34033;48.672;9.376;2024-01-27T10:10:18;2.30;;;1.40;;
13311;SDS011;34033;48.672;9.376;2024-01-27T10:12:43;1.37;;;1.27;;
13311;SDS011;34033;48.672;9.376;2024-01-27T10:15:18;1.57;;;1.47;;
13311;SDS011;34033;48.672;9.376;2024-01-27T10:17:45;1.60;;;1.50;;
13311;SDS011;34033;48.672;9.376;2024-01-27T10:20:10;3.83;;;1.60;;
13311;SDS011;34033;48.672;9.376;2024-01-27T10:22:42;3.37;;;1.80;;
13311;SDS011;34033;48.672;9.376;2024-01-27T10:25:09;1.80;;;1.57;;
13311;SDS011;34033;48.672;9.376;2024-01-27T10:27:35;2.80;;;1.50;;
13311;SDS011;34033;48.672;9.376;2024-01-27T10:30:01;6.53;;;1.40;;
13311;SDS011;34033;48.672;9.376;2024-01-27T10:32:27;1.70;;;1.57;;
13311;SDS011;34033;48.672;9.376;2024-01-27T10:35:05;1.57;;;1.47;;
13311;SDS011;34033;48.672;9.376;2024-01-27T10:37:33;3.17;;;1.80;;
13311;SDS011;34033;48.672;9.376;2024-01-27T10:40:03;1.70;;;1.60;;
13311;SDS011;34033;48.672;9.376;2024-01-27T10:42:29;1.67;;;1.43;;
13311;SDS011;34033;48.672;9.376;2024-01-27T10:44:57;3.57;;;1.77;;
13311;SDS011;34033;48.672;9.376;2024-01-27T10:47:25;2.63;;;2.00;;
13311;SDS011;34033;48.672;9.376;2024-01-27T10:49:56;1.70;;;1.60;;
13311;SDS011;34033;48.672;9.376;2024-01-27T10:52:27;1.80;;;1.63;;
13311;SDS011;34033;48.672;9.376;2024-01-27T10:55:00;3.50;;;1.93;;
13311;SDS011;34033;48.672;9.376;2024-01-27T10:57:29;2.57;;;1.90;;
13311;SDS011;34033;48.672;9.376;2024-01-27T10:59:55;1.90;;;1.70;;
13311;SDS011;34033;48.672;9.376;2024-01-27T11:02:23;3.10;;;1.73;;
13311;SDS011;34033;48.672;9.376;2024-01-27T11:04:49;2.83;;;1.70;;
13311;SDS011;34033;48.672;9.376;2024-01-27T11:07:16;1.67;;;1.57;;
13311;SDS011;34033;48.672;9.376;2024-01-27T11:09:45;1.57;;;1.47;;
13311;SDS011;34033;48.672;9.376;2024-01-27T11:12:13;2.17;;;1.80;;
13311;SDS011;34033;48.672;9.376;2024-01-27T11:14:39;2.27;;;1.90;;
13311;SDS011;34033;48.672;9.376;2024-01-27T11:17:05;2.30;;;1.67;;
13311;SDS011;34033;48.672;9.376;2024-01-27T11:19:32;2.00;;;1.73;;
13311;SDS011;34033;48.672;9.376;2024-01-27T11:22:04;2.53;;;2.30;;
13311;SDS011;34033;48.672;9.376;2024-01-27T11:24:29;2.27;;;1.67;;
13311;SDS011;34033;48.672;9.376;2024-01-27T11:27:01;3.53;;;2.00;;
13311;SDS011;34033;48.672;9.376;2024-01-27T11:29:27;3.60;;;1.60;;
13311;SDS011;34033;48.672;9.376;2024-01-27T11:31:54;2.13;;;1.70;;
13311;SDS011;34033;48.672;9.376;2024-01-27T11:34:23;1.83;;;1.60;;
13311;SDS011;34033;48.672;9.376;2024-01-27T11:36:48;2.90;;;1.67;;
13311;SDS011;34033;48.672;9.376;2024-01-27T11:39:23;1.77;;;1.60;;
13311;SDS011;34033;48.672;9.376;2024-01-27T11:41:53;1.67;;;1.33;;
13311;SDS011;34033;48.672;9.376;2024-01-27T11:44:28;6.27;;;1.90;;
13311;SDS011;34033;48.672;9.376;2024-01-27T11:46:54;1.77;;;1.67;;
13311;SDS011;34033;48.672;9.376;2024-01-27T11:49:19;1.93;;;1.63;;
13311;SDS011;34033;48.672;9.376;2024-01-27T11:51:44;1.80;;;1.70;;
13311;SDS011;34033;48.672;9.376;2024-01-27T11:54:10;2.50;;;1.70;;
13311;SDS011;34033;48.672;9.376;2024-01-27T11:56:36;2.63;;;1.87;;
13311;SDS011;34033;48.672;9.376;2024-01-27T11:59:01;5.17;;;2.40;;
13311;SDS011;34033;48.672;9.376;2024-01-27T12:01:27;1.70;;;1.60;;
13311;SDS011;34033;48.672;9.376;2024-01-27T12:03:52;2.40;;;2.00;;
13311;SDS011;34033;48.672;9.376;2024-01-27T12:06:18;1.90;;;1.60;;
13311;SDS011;34033;48.672;9.376;2024-01-27T12:08:43;5.47;;;2.13;;
13311;SDS011;34033;48.672;9.376;2024-01-27T12:11:12;2.23;;;1.77;;
13311;SDS011;34033;48.672;9.376;2024-01-27T12:13:40;2.00;;;1.80;;
13311;SDS011;34033;48.672;9.376;2024-01-27T12:16:06;2.13;;;1.93;;
13311;SDS011;34033;48.672;9.376;2024-01-27T12:18:33;2.00;;;1.77;;
13311;SDS011;34033;48.672;9.376;2024-01-27T12:21:00;2.43;;;1.80;;
13311;SDS011;34033;48.672;9.376;2024-01-27T12:23:25;1.77;;;1.57;;
13311;SDS011;34033;48.672;9.376;2024-01-27T12:25:53;2.70;;;1.97;;
13311;SDS011;34033;48.672;9.376;2024-01-27T12:28:20;2.30;;;2.03;;
13311;SDS011;34033;48.672;9.376;2024-01-27T12:30:50;2.67;;;1.97;;
13311;SDS011;34033;48.672;9.376;2024-01-27T12:33:17;2.40;;;1.60;;
13311;SDS011;34033;48.672;9.376;2024-01-27T12:35:47;6.00;;;1.83;;
13311;SDS011;34033;48.672;9.376;2024-01-27T12:38:12;2.10;;;1.70;;
13311;SDS011;34033;48.672;9.376;2024-01-27T12:40:38;2.50;;;1.87;;
13311;SDS011;34033;48.672;9.376;2024-01-27T12:43:03;1.93;;;1.73;;
13311;SDS011;34033;48.672;9.376;2024-01-27T12:45:29;1.93;;;1.70;;
13311;SDS011;34033;48.672;9.376;2024-01-27T12:47:54;2.70;;;1.70;;
13311;SDS011;34033;48.672;9.376;2024-01-27T12:50:20;3.53;;;1.73;;
13311;SDS011;34033;48.672;9.376;2024-01-27T12:52:45;6.93;;;2.30;;
13311;SDS011;34033;48.672;9.376;2024-01-27T12:55:10;4.47;;;2.20;;
13311;SDS011;34033;48.672;9.376;2024-01-27T12:57:36;2.10;;;1.90;;
13311;SDS011;34033;48.672;9.376;2024-01-27T13:00:01;4.00;;;1.73;;
13311;SDS011;34033;48.672;9.376;2024-01-27T13:02:34;5.50;;;2.03;;
13311;SDS011;34033;48.672;9.376;2024-01-27T13:05:00;2.53;;;1.67;;
13311;SDS011;34033;48.672;9.376;2024-01-27T13:07:25;3.77;;;1.67;;
13311;SDS011;34033;48.672;9.376;2024-01-27T13:09:51;3.13;;;1.50;;
13311;SDS011;34033;48.672;9.376;2024-01-27T13:12:16;3.27;;;1.80;;
13311;SDS011;34033;48.672;9.376;2024-01-27T13:14:41;3.17;;;1.70;;
13311;SDS011;34033;48.672;9.376;2024-01-27T13:17:07;1.83;;;1.70;;
13311;SDS011;34033;48.672;9.376;2024-01-27T13:19:32;2.07;;;1.80;;
13311;SDS011;34033;48.672;9.376;2024-01-27T13:21:58;1.40;;;1.30;;
13311;SDS011;34033;48.672;9.376;2024-01-27T13:24:23;2.67;;;1.40;;
13311;SDS011;34033;48.672;9.376;2024-01-27T13:26:50;1.53;;;1.43;;
13311;SDS011;34033;48.672;9.376;2024-01-27T13:29:16;2.37;;;1.63;;
13311;SDS011;34033;48.672;9.376;2024-01-27T13:31:42;4.47;;;1.43;;
13311;SDS011;34033;48.672;9.376;2024-01-27T13:34:07;1.67;;;1.50;;
13311;SDS011;34033;48.672;9.376;2024-01-27T13:36:33;2.67;;;1.53;;
13311;SDS011;34033;48.672;9.376;2024-01-27T13:38:59;1.63;;;1.50;;
13311;SDS011;34033;48.672;9.376;2024-01-27T13:41:25;1.53;;;1.23;;
13311;SDS011;34033;48.672;9.376;2024-01-27T13:43:50;3.20;;;1.73;;
13311;SDS011;34033;48.672;9.376;2024-01-27T13:46:16;4.20;;;2.17;;
13311;SDS011;34033;48.672;9.376;2024-01-27T13:48:42;3.20;;;1.50;;
13311;SDS011;34033;48.672;9.376;2024-01-27T13:51:08;1.60;;;1.47;;
13311;SDS011;34033;48.672;9.376;2024-01-27T13:53:33;1.70;;;1.60;;
13311;SDS011;34033;48.672;9.376;2024-01-27T13:55:59;1.53;;;1.43;;
13311;SDS011;34033;48.672;9.376;2024-01-27T13:58:25;2.33;;;1.20;;
13311;SDS011;34033;48.672;9.376;2024-01-27T14:00:51;1.40;;;1.17;;
13311;SDS011;34033;48.672;9.376;2024-01-27T14:03:16;0.83;;;0.83;;
13311;SDS011;34033;48.672;9.376;2024-01-27T14:05:42;1.07;;;1.07;;
13311;SDS011;34033;48.672;9.376;2024-01-27T14:08:08;1.23;;;1.13;;
13311;SDS011;34033;48.672;9.376;2024-01-27T14:10:35;1.63;;;1.23;;
13311;SDS011;34033;48.672;9.376;2024-01-27T14:13:01;1.33;;;1.30;;
13311;SDS011;34033;48.672;9.376;2024-01-27T14:15:29;1.10;;;1.10;;
13311;SDS011;34033;48.672;9.376;2024-01-27T14:17:55;2.90;;;1.40;;
13311;SDS011;34033;48.672;9.376;2024-01-27T14:20:20;2.27;;;1.10;;
13311;SDS011;34033;48.672;9.376;2024-01-27T14:22:46;3.13;;;1.87;;
13311;SDS011;34033;48.672;9.376;2024-01-27T14:25:11;3.07;;;1.20;;
13311;SDS011;34033;48.672;9.376;2024-01-27T14:27:37;1.23;;;1.10;;
13311;SDS011;34033;48.672;9.376;2024-01-27T14:30:03;2.13;;;1.33;;
13311;SDS011;34033;48.672;9.376;2024-01-27T14:32:29;1.63;;;1.37;;
13311;SDS011;34033;48.672;9.376;2024-01-27T14:34:54;3.60;;;1.43;;
13311;SDS011;34033;48.672;9.376;2024-01-27T14:37:19;4.40;;;1.33;;
13311;SDS011;34033;48.672;9.376;2024-01-27T14:39:45;1.40;;;1.30;;